createdAt,value
2023-05-04T00:00:01.192Z,13.68
2023-05-04T00:01:01.183Z,13.66
2023-05-04T00:02:01.159Z,13.66
2023-05-04T00:03:01.272Z,13.69
2023-05-04T00:04:01.346Z,13.57
2023-05-04T00:05:01.427Z,13.55
2023-05-04T00:06:01.127Z,13.48
2023-05-04T00:07:01.101Z,13.43
2023-05-04T00:08:01.081Z,13.48
2023-05-04T00:09:01.080Z,13.41
2023-05-04T00:10:01.090Z,13.41
2023-05-04T00:11:01.047Z,13.54
2023-05-04T00:12:01.261Z,13.38
2023-05-04T00:13:01.069Z,13.44
2023-05-04T00:14:01.023Z,13.51
2023-05-04T00:15:01.214Z,13.54
2023-05-04T00:16:01.003Z,13.54
2023-05-04T00:17:00.975Z,13.59
2023-05-04T00:18:01.003Z,13.48
2023-05-04T00:19:00.954Z,13.48
2023-05-04T00:20:00.953Z,13.53
2023-05-04T00:21:00.941Z,13.44
2023-05-04T00:22:00.916Z,13.41
2023-05-04T00:24:00.894Z,13.41
2023-05-04T00:25:00.877Z,13.55
2023-05-04T00:26:00.878Z,13.36
2023-05-04T00:27:00.854Z,13.38
2023-05-04T00:28:00.865Z,13.48
2023-05-04T00:29:00.838Z,13.50
2023-05-04T00:30:00.820Z,13.61
2023-05-04T00:31:00.807Z,13.51
2023-05-04T00:32:00.850Z,13.61
2023-05-04T00:33:00.807Z,13.48
2023-05-04T00:34:00.775Z,13.59
2023-05-04T00:35:00.760Z,13.59
2023-05-04T00:36:00.751Z,13.65
2023-05-04T00:37:00.734Z,13.62
2023-05-04T00:38:00.731Z,13.57
2023-05-04T00:39:00.709Z,13.48
2023-05-04T00:40:00.714Z,13.38
2023-05-04T00:41:00.687Z,13.38
2023-05-04T00:42:00.682Z,13.38
2023-05-04T00:43:00.661Z,13.41
2023-05-04T00:44:00.670Z,13.38
2023-05-04T00:45:00.664Z,13.38
2023-05-04T00:46:00.636Z,13.51
2023-05-04T00:47:00.724Z,13.48
2023-05-04T00:48:00.639Z,13.51
2023-05-04T00:49:00.602Z,13.41
2023-05-04T00:50:00.594Z,13.55
2023-05-04T00:51:00.569Z,13.51
2023-05-04T00:52:00.572Z,13.44
2023-05-04T00:53:00.544Z,13.46
2023-05-04T00:54:00.532Z,13.35
2023-05-04T00:55:00.520Z,13.38
2023-05-04T00:56:00.507Z,13.39
2023-05-04T00:57:00.493Z,13.32
2023-05-04T00:58:00.493Z,13.29
2023-05-04T00:59:00.478Z,13.36
2023-05-04T01:00:00.565Z,13.41
2023-05-04T01:01:00.461Z,13.38
2023-05-04T01:02:00.439Z,13.31
2023-05-04T01:03:00.525Z,13.36
2023-05-04T01:04:00.467Z,13.44
2023-05-04T01:05:00.400Z,13.29
2023-05-04T01:06:00.393Z,13.36
2023-05-04T01:07:00.379Z,13.35
2023-05-04T01:08:00.370Z,13.38
2023-05-04T01:09:00.351Z,13.38
2023-05-04T01:10:00.354Z,13.36
2023-05-04T01:11:00.326Z,13.38
2023-05-04T01:12:00.318Z,13.43
2023-05-04T01:13:00.359Z,13.35
2023-05-04T01:14:00.297Z,13.36
2023-05-04T01:15:00.288Z,13.29
2023-05-04T01:16:00.288Z,13.44
2023-05-04T01:17:00.527Z,13.32
2023-05-04T01:18:00.309Z,13.31
2023-05-04T01:19:00.253Z,13.31
2023-05-04T01:20:00.229Z,13.28
2023-05-04T01:21:00.205Z,13.31
2023-05-04T01:22:00.206Z,13.32
2023-05-04T01:23:00.184Z,13.24
2023-05-04T01:24:00.176Z,13.35
2023-05-04T01:25:00.236Z,13.32
2023-05-04T01:26:00.165Z,13.25
2023-05-04T01:27:00.216Z,13.27
2023-05-04T01:28:00.120Z,13.28
2023-05-04T01:29:00.142Z,13.35
2023-05-04T01:30:00.109Z,13.36
2023-05-04T01:31:00.157Z,13.29
2023-05-04T01:32:00.119Z,13.28
2023-05-04T01:33:00.130Z,13.35
2023-05-04T01:34:00.078Z,13.28
2023-05-04T01:36:00.026Z,13.14
2023-05-04T01:37:00.014Z,13.07
2023-05-04T01:38:00.008Z,13.07
2023-05-04T01:38:59.985Z,13.07
2023-05-04T01:39:59.972Z,13.13
2023-05-04T01:40:59.962Z,13.12
2023-05-04T01:41:59.945Z,13.06
2023-05-04T01:42:59.935Z,12.95
2023-05-04T01:43:59.966Z,12.89
2023-05-04T01:44:59.910Z,12.94
2023-05-04T01:46:00.051Z,12.77
2023-05-04T01:46:59.897Z,12.74
2023-05-04T01:47:59.979Z,12.74
2023-05-04T01:48:59.872Z,12.62
2023-05-04T01:49:59.851Z,12.58
2023-05-04T01:50:59.841Z,12.54
2023-05-04T01:51:59.823Z,12.36
2023-05-04T01:52:59.811Z,12.38
2023-05-04T01:53:59.805Z,12.49
2023-05-04T01:54:59.782Z,12.52
2023-05-04T01:55:59.774Z,12.59
2023-05-04T01:56:59.765Z,12.54
2023-05-04T01:57:59.751Z,12.38
2023-05-04T01:58:59.733Z,12.36
2023-05-04T01:59:59.731Z,12.41
2023-05-04T02:00:59.713Z,12.26
2023-05-04T02:01:59.756Z,12.29
2023-05-04T02:02:59.746Z,12.15
2023-05-04T02:04:00.000Z,12.05
2023-05-04T02:04:59.660Z,12.07
2023-05-04T02:05:59.653Z,11.97
2023-05-04T02:06:59.639Z,11.82
2023-05-04T02:07:59.627Z,11.79
2023-05-04T02:08:59.620Z,11.74
2023-05-04T02:09:59.619Z,11.82
2023-05-04T02:10:59.586Z,11.75
2023-05-04T02:11:59.574Z,11.72
2023-05-04T02:12:59.631Z,11.79
2023-05-04T02:13:59.553Z,11.67
2023-05-04T02:14:59.539Z,11.84
2023-05-04T02:15:59.561Z,11.72
2023-05-04T02:16:59.514Z,11.79
2023-05-04T02:17:59.516Z,11.67
2023-05-04T02:18:59.486Z,11.63
2023-05-04T02:19:59.501Z,11.57
2023-05-04T02:20:59.464Z,11.62
2023-05-04T02:21:59.453Z,11.46
2023-05-04T02:22:59.442Z,11.62
2023-05-04T02:23:59.428Z,11.53
2023-05-04T02:24:59.410Z,11.63
2023-05-04T02:25:59.404Z,11.64
2023-05-04T02:26:59.386Z,11.60
2023-05-04T02:27:59.379Z,11.78
2023-05-04T02:28:59.363Z,11.64
2023-05-04T02:29:59.353Z,11.67
2023-05-04T02:30:59.342Z,11.72
2023-05-04T02:31:59.474Z,11.77
2023-05-04T02:32:59.332Z,11.88
2023-05-04T02:33:59.303Z,12.05
2023-05-04T02:34:59.289Z,11.97
2023-05-04T02:35:59.408Z,11.93
2023-05-04T02:36:59.263Z,11.88
2023-05-04T02:37:59.249Z,11.79
2023-05-04T02:38:59.236Z,11.72
2023-05-04T02:39:59.225Z,11.70
2023-05-04T02:40:59.209Z,11.64
2023-05-04T02:41:59.206Z,11.67
2023-05-04T02:42:59.187Z,11.66
2023-05-04T02:43:59.204Z,11.66
2023-05-04T02:44:59.160Z,11.63
2023-05-04T02:45:59.210Z,11.49
2023-05-04T02:46:59.135Z,11.51
2023-05-04T02:47:59.178Z,11.45
2023-05-04T02:48:59.110Z,11.53
2023-05-04T02:49:59.108Z,11.45
2023-05-04T02:50:59.082Z,11.63
2023-05-04T02:51:59.155Z,11.44
2023-05-04T02:52:59.071Z,11.53
2023-05-04T02:53:59.053Z,11.41
2023-05-04T02:54:59.043Z,11.75
2023-05-04T02:55:59.042Z,11.57
2023-05-04T02:56:59.010Z,11.48
2023-05-04T02:57:59.007Z,11.48
2023-05-04T02:58:58.985Z,11.51
2023-05-04T02:59:58.974Z,11.62
2023-05-04T03:00:58.998Z,11.45
2023-05-04T03:01:58.950Z,11.39
2023-05-04T03:02:59.003Z,11.38
2023-05-04T03:03:58.980Z,11.33
2023-05-04T03:04:58.970Z,11.27
2023-05-04T03:05:58.904Z,11.30
2023-05-04T03:06:58.883Z,11.19
2023-05-04T03:07:58.927Z,11.23
2023-05-04T03:08:58.860Z,11.24
2023-05-04T03:09:58.852Z,11.33
2023-05-04T03:10:58.836Z,11.46
2023-05-04T03:11:58.820Z,11.42
2023-05-04T03:12:58.850Z,11.45
2023-05-04T03:13:58.799Z,11.28
2023-05-04T03:14:58.780Z,11.21
2023-05-04T03:15:58.812Z,11.17
2023-05-04T03:16:58.841Z,11.13
2023-05-04T03:17:58.822Z,11.12
2023-05-04T03:18:58.745Z,11.08
2023-05-04T03:19:58.720Z,11.08
2023-05-04T03:20:58.709Z,10.95
2023-05-04T03:21:58.693Z,11.03
2023-05-04T03:22:58.681Z,11.06
2023-05-04T03:23:58.693Z,10.99
2023-05-04T03:24:58.656Z,11.03
2023-05-04T03:25:58.654Z,10.99
2023-05-04T03:26:58.629Z,10.95
2023-05-04T03:27:58.616Z,10.84
2023-05-04T03:28:58.610Z,10.93
2023-05-04T03:29:58.615Z,10.90
2023-05-04T03:30:58.577Z,10.83
2023-05-04T03:31:58.666Z,10.88
2023-05-04T03:32:58.627Z,10.81
2023-05-04T03:33:58.541Z,10.75
2023-05-04T03:34:58.537Z,10.86
2023-05-04T03:35:58.522Z,10.78
2023-05-04T03:36:58.501Z,10.72
2023-05-04T03:37:58.494Z,10.75
2023-05-04T03:38:58.484Z,10.78
2023-05-04T03:39:58.483Z,10.70
2023-05-04T03:40:58.447Z,10.65
2023-05-04T03:41:58.435Z,10.69
2023-05-04T03:42:58.418Z,10.78
2023-05-04T03:43:58.407Z,10.68
2023-05-04T03:44:58.398Z,10.62
2023-05-04T03:45:58.452Z,10.55
2023-05-04T03:46:58.387Z,10.46
2023-05-04T03:47:58.400Z,10.54
2023-05-04T03:48:58.344Z,10.55
2023-05-04T03:49:58.328Z,10.57
2023-05-04T03:50:58.315Z,10.60
2023-05-04T03:51:58.305Z,10.44
2023-05-04T03:52:58.290Z,10.39
2023-05-04T03:53:58.280Z,10.47
2023-05-04T03:54:58.265Z,10.42
2023-05-04T03:55:58.271Z,10.44
2023-05-04T03:56:58.249Z,10.36
2023-05-04T03:57:58.234Z,10.36
2023-05-04T03:58:58.209Z,10.36
2023-05-04T03:59:58.204Z,10.43
2023-05-04T04:00:58.182Z,10.42
2023-05-04T04:01:58.199Z,10.35
2023-05-04T04:02:58.308Z,10.32
2023-05-04T04:03:58.212Z,10.39
2023-05-04T04:04:58.134Z,10.39
2023-05-04T04:05:58.119Z,10.43
2023-05-04T04:06:58.101Z,10.43
2023-05-04T04:07:58.096Z,10.31
2023-05-04T04:08:58.077Z,10.35
2023-05-04T04:09:58.065Z,10.43
2023-05-04T04:10:58.055Z,10.32
2023-05-04T04:11:58.062Z,10.34
2023-05-04T04:12:58.084Z,10.39
2023-05-04T04:13:58.022Z,10.32
2023-05-04T04:14:57.996Z,10.38
2023-05-04T04:15:58.036Z,10.42
2023-05-04T04:16:57.969Z,10.42
2023-05-04T04:17:58.034Z,10.60
2023-05-04T04:18:58.035Z,10.66
2023-05-04T04:19:57.934Z,10.51
2023-05-04T04:20:57.944Z,10.54
2023-05-04T04:21:57.939Z,10.65
2023-05-04T04:22:57.892Z,10.70
2023-05-04T04:23:57.896Z,10.65
2023-05-04T04:24:57.900Z,10.75
2023-05-04T04:25:57.857Z,10.81
2023-05-04T04:26:57.840Z,10.76
2023-05-04T04:27:57.871Z,10.81
2023-05-04T04:28:57.822Z,10.73
2023-05-04T04:29:57.808Z,10.83
2023-05-04T04:30:57.856Z,10.87
2023-05-04T04:31:57.800Z,10.88
2023-05-04T04:32:57.781Z,10.98
2023-05-04T04:33:57.757Z,10.99
2023-05-04T04:34:57.737Z,11.02
2023-05-04T04:35:57.725Z,10.95
2023-05-04T04:36:57.714Z,11.02
2023-05-04T04:37:57.707Z,11.02
2023-05-04T04:38:57.684Z,11.01
2023-05-04T04:39:57.673Z,10.91
2023-05-04T04:40:57.660Z,10.99
2023-05-04T04:41:57.649Z,11.12
2023-05-04T04:42:57.633Z,11.31
2023-05-04T04:43:57.644Z,11.78
2023-05-04T04:44:57.617Z,12.37
2023-05-04T04:45:57.599Z,12.74
2023-05-04T04:46:57.666Z,13.21
2023-05-04T04:47:57.591Z,13.50
2023-05-04T04:48:57.556Z,13.75
2023-05-04T04:49:57.592Z,14.06
2023-05-04T04:50:57.544Z,14.42
2023-05-04T04:51:57.522Z,14.79
2023-05-04T04:52:57.513Z,14.90
2023-05-04T04:53:57.502Z,15.30
2023-05-04T04:54:57.490Z,15.52
2023-05-04T04:55:57.480Z,15.67
2023-05-04T04:56:57.467Z,15.88
2023-05-04T04:57:57.456Z,16.16
2023-05-04T04:58:57.440Z,16.36
2023-05-04T04:59:57.456Z,16.50
2023-05-04T05:00:57.482Z,16.78
2023-05-04T05:01:57.417Z,16.96
2023-05-04T05:02:57.497Z,17.24
2023-05-04T05:03:57.395Z,17.27
2023-05-04T05:04:57.457Z,17.35
2023-05-04T05:05:57.378Z,17.38
2023-05-04T05:06:57.365Z,17.49
2023-05-04T05:07:57.357Z,17.54
2023-05-04T05:08:57.346Z,17.57
2023-05-04T05:09:57.338Z,17.49
2023-05-04T05:10:57.328Z,17.35
2023-05-04T05:11:57.319Z,17.27
2023-05-04T05:12:57.351Z,17.05
2023-05-04T05:13:57.308Z,16.99
2023-05-04T05:14:57.287Z,16.84
2023-05-04T05:15:57.413Z,16.87
2023-05-04T05:16:57.288Z,16.87
2023-05-04T05:17:57.338Z,16.75
2023-05-04T05:18:57.250Z,16.80
2023-05-04T05:19:57.294Z,16.77
2023-05-04T05:20:57.228Z,16.66
2023-05-04T05:21:57.224Z,16.65
2023-05-04T05:22:57.206Z,16.67
2023-05-04T05:23:57.207Z,16.75
2023-05-04T05:24:57.190Z,16.62
2023-05-04T05:25:57.180Z,16.63
2023-05-04T05:26:57.168Z,16.52
2023-05-04T05:27:57.161Z,16.51
2023-05-04T05:28:57.153Z,16.45
2023-05-04T05:29:57.142Z,16.41
2023-05-04T05:30:57.151Z,16.25
2023-05-04T05:31:57.142Z,16.32
2023-05-04T05:32:57.156Z,16.29
2023-05-04T05:33:57.101Z,16.29
2023-05-04T05:34:57.087Z,16.27
2023-05-04T05:35:57.080Z,16.23
2023-05-04T05:36:57.068Z,16.23
2023-05-04T05:37:57.067Z,16.32
2023-05-04T05:38:57.050Z,16.25
2023-05-04T05:39:57.045Z,16.33
2023-05-04T05:40:57.041Z,16.40
2023-05-04T05:41:57.023Z,16.33
2023-05-04T05:42:57.008Z,16.45
2023-05-04T05:43:57.006Z,16.44
2023-05-04T05:44:57.011Z,16.48
2023-05-04T05:45:57.031Z,16.40
2023-05-04T05:46:56.971Z,16.47
2023-05-04T05:47:57.005Z,16.45
2023-05-04T05:48:56.953Z,16.42
2023-05-04T05:49:56.946Z,16.51
2023-05-04T05:50:56.942Z,16.47
2023-05-04T05:51:56.926Z,16.48
2023-05-04T05:52:56.914Z,16.57
2023-05-04T05:53:56.910Z,16.44
2023-05-04T05:54:56.896Z,16.48
2023-05-04T05:55:56.888Z,16.54
2023-05-04T05:56:56.877Z,16.57
2023-05-04T05:57:56.868Z,16.62
2023-05-04T05:58:56.862Z,16.75
2023-05-04T05:59:56.854Z,16.69
2023-05-04T06:00:56.851Z,16.65
2023-05-04T06:01:56.830Z,16.69
2023-05-04T06:02:56.885Z,16.60
2023-05-04T06:03:57.008Z,16.62
2023-05-04T06:04:56.961Z,16.80
2023-05-04T06:05:56.795Z,16.80
2023-05-04T06:06:56.786Z,16.87
2023-05-04T06:07:56.778Z,16.87
2023-05-04T06:08:56.767Z,16.87
2023-05-04T06:09:56.757Z,16.98
2023-05-04T06:10:56.750Z,16.99
2023-05-04T06:11:56.738Z,17.02
2023-05-04T06:12:56.758Z,17.00
2023-05-04T06:13:56.721Z,17.03
2023-05-04T06:14:56.719Z,17.06
2023-05-04T06:15:56.710Z,17.10
2023-05-04T06:16:56.697Z,16.99
2023-05-04T06:17:56.732Z,16.92
2023-05-04T06:18:56.680Z,17.09
2023-05-04T06:19:56.683Z,17.12
2023-05-04T06:20:56.657Z,17.12
2023-05-04T06:21:56.648Z,17.17
2023-05-04T06:22:56.639Z,17.25
2023-05-04T06:23:56.624Z,17.24
2023-05-04T06:25:01.578Z,17.28
2023-05-04T06:25:56.610Z,17.27
2023-05-04T06:26:56.626Z,17.25
2023-05-04T06:27:56.598Z,17.28
2023-05-04T06:28:56.587Z,17.35
2023-05-04T06:29:56.578Z,17.42
2023-05-04T06:30:56.569Z,17.32
2023-05-04T06:31:56.606Z,17.39
2023-05-04T06:32:56.617Z,17.46
2023-05-04T06:33:56.539Z,17.47
2023-05-04T06:34:56.536Z,17.55
2023-05-04T06:35:56.570Z,17.54
2023-05-04T06:36:56.513Z,17.60
2023-05-04T06:37:56.519Z,17.55
2023-05-04T06:38:56.496Z,17.62
2023-05-04T06:39:56.501Z,17.53
2023-05-04T06:40:56.521Z,17.54
2023-05-04T06:41:56.468Z,17.57
2023-05-04T06:42:56.471Z,17.54
2023-05-04T06:43:58.264Z,17.60
2023-05-04T06:44:56.446Z,17.62
2023-05-04T06:45:56.498Z,17.68
2023-05-04T06:46:56.429Z,17.79
2023-05-04T06:47:56.445Z,17.73
2023-05-04T06:48:56.417Z,17.74
2023-05-04T06:49:56.401Z,17.74
2023-05-04T06:50:56.401Z,17.76
2023-05-04T06:51:56.417Z,17.95
2023-05-04T06:52:56.380Z,17.91
2023-05-04T06:53:56.369Z,17.92
2023-05-04T06:54:56.365Z,17.94
2023-05-04T06:55:56.352Z,17.98
2023-05-04T06:56:56.346Z,18.01
2023-05-04T06:57:56.542Z,18.05
2023-05-04T06:58:56.331Z,18.13
2023-05-04T06:59:56.322Z,18.04
2023-05-04T07:00:56.367Z,18.14
2023-05-04T07:01:56.305Z,18.20
2023-05-04T07:02:56.340Z,18.26
2023-05-04T07:03:56.334Z,18.34
2023-05-04T07:04:56.283Z,18.39
2023-05-04T07:05:56.271Z,18.50
2023-05-04T07:06:56.277Z,18.47
2023-05-04T07:07:56.283Z,18.49
2023-05-04T07:08:56.252Z,18.50
2023-05-04T07:09:56.250Z,18.60
2023-05-04T07:10:56.237Z,18.57
2023-05-04T07:11:56.225Z,18.59
2023-05-04T07:12:56.230Z,18.72
2023-05-04T07:13:56.208Z,18.82
2023-05-04T07:14:56.202Z,18.84
2023-05-04T07:15:56.221Z,18.89
2023-05-04T07:16:56.186Z,18.89
2023-05-04T07:17:56.225Z,18.96
2023-05-04T07:18:56.170Z,18.99
2023-05-04T07:19:56.168Z,18.97
2023-05-04T07:21:06.068Z,18.91
2023-05-04T07:21:56.148Z,18.91
2023-05-04T07:22:56.143Z,18.82
2023-05-04T07:23:56.153Z,18.82
2023-05-04T07:24:56.128Z,18.75
2023-05-04T07:25:56.114Z,18.66
2023-05-04T07:26:56.110Z,18.62
2023-05-04T07:27:56.114Z,18.59
2023-05-04T07:28:56.110Z,18.49
2023-05-04T07:29:56.088Z,18.53
2023-05-04T07:30:56.078Z,18.49
2023-05-04T07:31:56.176Z,18.46
2023-05-04T07:32:56.130Z,18.51
2023-05-04T07:33:56.053Z,18.56
2023-05-04T07:34:56.062Z,18.59
2023-05-04T07:35:56.037Z,18.60
2023-05-04T07:36:56.043Z,18.64
2023-05-04T07:37:56.028Z,18.59
2023-05-04T07:38:56.032Z,18.65
2023-05-04T07:39:56.343Z,18.59
2023-05-04T07:40:56.078Z,18.69
2023-05-04T07:41:55.997Z,18.72
2023-05-04T07:42:55.989Z,18.76
2023-05-04T07:43:55.994Z,18.72
2023-05-04T07:44:55.985Z,18.83
2023-05-04T07:45:56.014Z,18.74
2023-05-04T07:46:55.956Z,18.79
2023-05-04T07:47:55.957Z,18.79
2023-05-04T07:48:55.946Z,18.84
2023-05-04T07:49:55.937Z,18.83
2023-05-04T07:50:55.942Z,18.82
2023-05-04T07:51:55.921Z,18.89
2023-05-04T07:52:56.038Z,18.96
2023-05-04T07:53:55.907Z,19.05
2023-05-04T07:54:55.902Z,19.07
2023-05-04T07:55:55.921Z,19.13
2023-05-04T07:56:55.894Z,19.09
2023-05-04T07:57:55.888Z,19.30
2023-05-04T07:58:55.874Z,19.31
2023-05-04T07:59:55.868Z,19.31
2023-05-04T08:00:55.863Z,19.35
2023-05-04T08:01:55.876Z,19.45
2023-05-04T08:02:55.854Z,19.46
2023-05-04T08:03:55.844Z,19.52
2023-05-04T08:04:55.831Z,19.60
2023-05-04T08:05:55.821Z,19.62
2023-05-04T08:06:55.815Z,19.72
2023-05-04T08:07:55.805Z,19.60
2023-05-04T08:08:55.804Z,19.64
2023-05-04T08:09:55.792Z,19.61
2023-05-04T08:11:01.953Z,19.60
2023-05-04T08:11:55.844Z,19.58
2023-05-04T08:12:55.819Z,19.62
2023-05-04T08:13:55.769Z,19.61
2023-05-04T08:14:55.766Z,19.61
2023-05-04T08:15:55.757Z,19.71
2023-05-04T08:16:55.757Z,19.86
2023-05-04T08:17:55.979Z,19.90
2023-05-04T08:18:55.741Z,19.98
2023-05-04T08:19:55.728Z,19.90
2023-05-04T08:20:55.721Z,19.97
2023-05-04T08:21:55.712Z,20.04
2023-05-04T08:22:55.710Z,20.07
2023-05-04T08:23:55.707Z,20.19
2023-05-04T08:24:55.719Z,20.26
2023-05-04T08:25:55.688Z,20.35
2023-05-04T08:27:04.251Z,20.41
2023-05-04T08:27:55.702Z,20.46
2023-05-04T08:28:55.676Z,20.46
2023-05-04T08:29:55.664Z,20.50
2023-05-04T08:30:55.661Z,20.53
2023-05-04T08:31:55.663Z,20.46
2023-05-04T08:32:55.662Z,20.66
2023-05-04T08:33:55.646Z,20.82
2023-05-04T08:34:55.637Z,20.87
2023-05-04T08:35:55.626Z,20.97
2023-05-04T08:36:55.625Z,20.91
2023-05-04T08:37:55.621Z,20.93
2023-05-04T08:38:55.610Z,20.93
2023-05-04T08:39:55.605Z,20.91
2023-05-04T08:40:55.603Z,21.01
2023-05-04T08:41:55.591Z,21.05
2023-05-04T08:42:55.590Z,21.05
2023-05-04T08:43:55.606Z,21.03
2023-05-04T08:44:55.577Z,21.18
2023-05-04T08:45:55.606Z,21.24
2023-05-04T08:46:55.567Z,21.28
2023-05-04T08:47:55.612Z,21.31
2023-05-04T08:48:55.558Z,21.28
2023-05-04T08:49:55.549Z,21.22
2023-05-04T08:50:55.547Z,21.15
2023-05-04T08:51:55.531Z,21.18
2023-05-04T08:52:55.533Z,21.27
2023-05-04T08:53:55.525Z,21.33
2023-05-04T08:54:55.537Z,21.30
2023-05-04T08:55:55.516Z,21.40
2023-05-04T08:56:55.509Z,21.43
2023-05-04T08:57:55.501Z,21.45
2023-05-04T08:58:55.496Z,21.56
2023-05-04T08:59:55.636Z,21.52
2023-05-04T09:00:55.552Z,21.53
2023-05-04T09:01:55.535Z,21.52
2023-05-04T09:02:55.581Z,21.58
2023-05-04T09:03:55.636Z,21.59
2023-05-04T09:04:55.470Z,21.70
2023-05-04T09:05:55.465Z,21.70
2023-05-04T09:06:55.464Z,21.61
2023-05-04T09:07:55.442Z,21.58
2023-05-04T09:08:55.454Z,21.55
2023-05-04T09:09:55.435Z,21.59
2023-05-04T09:10:55.442Z,21.71
2023-05-04T09:11:55.436Z,21.73
2023-05-04T09:12:55.490Z,21.83
2023-05-04T09:13:55.413Z,21.85
2023-05-04T09:14:55.414Z,21.91
2023-05-04T09:15:55.435Z,22.01
2023-05-04T09:16:55.436Z,21.98
2023-05-04T09:17:57.628Z,21.90
2023-05-04T09:18:55.389Z,21.85
2023-05-04T09:19:55.381Z,21.81
2023-05-04T09:20:55.379Z,21.77
2023-05-04T09:21:55.401Z,21.79
2023-05-04T09:22:55.369Z,21.70
2023-05-04T09:23:55.411Z,21.61
2023-05-04T09:24:55.384Z,21.52
2023-05-04T09:25:55.362Z,21.52
2023-05-04T09:26:55.353Z,21.51
2023-05-04T09:27:55.355Z,21.56
2023-05-04T09:28:55.340Z,21.59
2023-05-04T09:29:55.369Z,21.55
2023-05-04T09:30:55.337Z,21.55
2023-05-04T09:31:55.454Z,21.53
2023-05-04T09:32:55.404Z,21.71
2023-05-04T09:33:55.311Z,21.70
2023-05-04T09:34:55.305Z,21.75
2023-05-04T09:35:55.303Z,21.74
2023-05-04T09:36:55.301Z,21.75
2023-05-04T09:37:55.291Z,21.74
2023-05-04T09:38:55.286Z,21.71
2023-05-04T09:39:55.299Z,21.77
2023-05-04T09:40:55.283Z,21.77
2023-05-04T09:41:55.270Z,21.74
2023-05-04T09:42:55.267Z,21.81
2023-05-04T09:43:55.258Z,21.74
2023-05-04T09:44:55.265Z,21.89
2023-05-04T09:45:55.259Z,21.86
2023-05-04T09:46:55.245Z,21.96
2023-05-04T09:47:55.356Z,21.98
2023-05-04T09:48:55.309Z,21.99
2023-05-04T09:49:55.230Z,21.86
2023-05-04T09:50:55.226Z,21.98
2023-05-04T09:51:55.220Z,21.98
2023-05-04T09:52:55.215Z,22.15
2023-05-04T09:53:55.212Z,22.23
2023-05-04T09:54:55.205Z,22.31
2023-05-04T09:55:55.199Z,22.44
2023-05-04T09:56:55.201Z,22.41
2023-05-04T09:57:55.189Z,22.36
2023-05-04T09:58:55.188Z,22.51
2023-05-04T09:59:55.176Z,22.52
2023-05-04T10:00:55.180Z,22.49
2023-05-04T10:01:55.223Z,22.46
2023-05-04T10:02:55.224Z,22.38
2023-05-04T10:03:55.186Z,22.48
2023-05-04T10:04:55.157Z,22.51
2023-05-04T10:05:55.331Z,22.42
2023-05-04T10:06:55.148Z,22.52
2023-05-04T10:07:55.141Z,22.51
2023-05-04T10:08:55.138Z,22.45
2023-05-04T10:09:55.138Z,22.45
2023-05-04T10:10:55.130Z,22.49
2023-05-04T10:11:55.120Z,22.49
2023-05-04T10:12:55.135Z,22.57
2023-05-04T10:13:55.111Z,22.54
2023-05-04T10:14:55.125Z,22.24
2023-05-04T10:15:55.112Z,22.11
2023-05-04T10:16:55.101Z,22.04
2023-05-04T10:17:55.114Z,21.98
2023-05-04T10:18:55.097Z,21.71
2023-05-04T10:19:55.129Z,21.55
2023-05-04T10:20:55.083Z,21.70
2023-05-04T10:21:55.085Z,21.79
2023-05-04T10:22:55.069Z,21.91
2023-05-04T10:23:55.067Z,22.02
2023-05-04T10:24:55.064Z,22.17
2023-05-04T10:25:55.058Z,22.21
2023-05-04T10:26:55.054Z,22.20
2023-05-04T10:28:55.069Z,22.11
2023-05-04T10:29:55.045Z,22.20
2023-05-04T10:30:55.032Z,22.23
2023-05-04T10:31:55.062Z,22.30
2023-05-04T10:32:55.065Z,22.45
2023-05-04T10:33:55.017Z,22.59
2023-05-04T10:34:56.826Z,22.72
2023-05-04T10:35:55.030Z,22.75
2023-05-04T10:36:55.009Z,22.93
2023-05-04T10:37:54.996Z,23.12
2023-05-04T10:38:54.995Z,23.22
2023-05-04T10:39:54.985Z,23.19
2023-05-04T10:40:54.989Z,23.26
2023-05-04T10:41:54.980Z,23.44
2023-05-04T10:42:54.978Z,23.50
2023-05-04T10:43:54.972Z,23.52
2023-05-04T10:44:55.059Z,23.64
2023-05-04T10:45:55.042Z,23.71
2023-05-04T10:46:54.959Z,23.78
2023-05-04T10:48:54.950Z,23.78
2023-05-04T10:49:54.951Z,23.77
2023-05-04T10:50:54.942Z,23.75
2023-05-04T10:51:54.979Z,23.89
2023-05-04T10:52:54.940Z,23.74
2023-05-04T10:53:54.936Z,23.72
2023-05-04T10:54:54.929Z,23.72
2023-05-04T10:55:54.927Z,23.78
2023-05-04T10:56:54.920Z,23.77
2023-05-04T10:57:54.942Z,23.74
2023-05-04T10:58:54.934Z,23.71
2023-05-04T10:59:54.926Z,23.72
2023-05-04T11:00:54.929Z,23.75
2023-05-04T11:01:54.901Z,23.75
2023-05-04T11:02:54.937Z,23.75
2023-05-04T11:03:54.996Z,23.82
2023-05-04T11:04:54.889Z,23.89
2023-05-04T11:05:55.104Z,23.87
2023-05-04T11:06:54.881Z,23.77
2023-05-04T11:07:55.022Z,23.64
2023-05-04T11:08:54.875Z,23.63
2023-05-04T11:09:54.882Z,23.60
2023-05-04T11:10:54.866Z,23.62
2023-05-04T11:11:54.891Z,23.68
2023-05-04T11:12:54.891Z,23.71
2023-05-04T11:13:54.861Z,23.89
2023-05-04T11:14:54.851Z,23.92
2023-05-04T11:15:54.855Z,23.99
2023-05-04T11:16:54.892Z,23.90
2023-05-04T11:17:54.852Z,23.97
2023-05-04T11:18:54.862Z,24.02
2023-05-04T11:19:54.861Z,24.05
2023-05-04T11:20:54.829Z,24.15
2023-05-04T11:21:54.836Z,24.11
2023-05-04T11:22:54.856Z,24.18
2023-05-04T11:23:54.853Z,24.30
2023-05-04T11:24:56.260Z,24.31
2023-05-04T11:25:54.868Z,24.36
2023-05-04T11:26:55.014Z,24.36
2023-05-04T11:27:54.810Z,24.37
2023-05-04T11:28:54.809Z,24.37
2023-05-04T11:29:54.808Z,24.37
2023-05-04T11:30:56.172Z,24.42
2023-05-04T11:31:54.880Z,24.46
2023-05-04T11:32:54.810Z,24.45
2023-05-04T11:33:55.029Z,24.59
2023-05-04T11:34:54.785Z,24.64
2023-05-04T11:35:54.785Z,24.79
2023-05-04T11:36:54.780Z,24.80
2023-05-04T11:37:54.778Z,24.92
2023-05-04T11:38:54.772Z,24.93
2023-05-04T11:39:54.795Z,24.90
2023-05-04T11:40:54.765Z,24.93
2023-05-04T11:41:54.773Z,25.02
2023-05-04T11:42:56.742Z,25.07
2023-05-04T11:43:54.761Z,25.04
2023-05-04T11:44:54.755Z,25.05
2023-05-04T11:45:54.779Z,24.98
2023-05-04T11:46:54.808Z,24.92
2023-05-04T11:47:54.779Z,24.89
2023-05-04T11:48:54.748Z,24.94
2023-05-04T11:49:54.744Z,24.90
2023-05-04T11:50:54.740Z,24.99
2023-05-04T11:51:54.738Z,25.02
2023-05-04T11:52:54.733Z,24.98
2023-05-04T11:53:54.734Z,25.04
2023-05-04T11:54:55.796Z,25.02
2023-05-04T11:55:54.754Z,25.08
2023-05-04T11:56:54.720Z,25.14
2023-05-04T11:57:54.722Z,25.12
2023-05-04T11:58:54.719Z,24.98
2023-05-04T11:59:54.716Z,24.82
2023-05-04T12:00:55.919Z,24.52
2023-05-04T12:01:54.713Z,24.59
2023-05-04T12:02:55.033Z,24.31
2023-05-04T12:03:54.968Z,24.14
2023-05-04T12:04:54.704Z,24.02
2023-05-04T12:05:54.738Z,23.97
2023-05-04T12:06:54.692Z,23.99
2023-05-04T12:07:54.692Z,24.23
2023-05-04T12:08:54.689Z,24.29
2023-05-04T12:09:54.699Z,24.48
2023-05-04T12:10:54.681Z,24.64
2023-05-04T12:11:54.705Z,24.74
2023-05-04T12:12:54.806Z,24.82
2023-05-04T12:13:54.677Z,24.94
2023-05-04T12:14:54.688Z,25.01
2023-05-04T12:15:54.696Z,25.07
2023-05-04T12:16:54.673Z,25.08
2023-05-04T12:17:54.684Z,25.11
2023-05-04T12:18:54.657Z,25.11
2023-05-04T12:19:54.660Z,25.22
2023-05-04T12:20:54.652Z,25.20
2023-05-04T12:21:54.684Z,25.22
2023-05-04T12:22:54.650Z,25.30
2023-05-04T12:23:54.656Z,25.31
2023-05-04T12:24:54.641Z,25.35
2023-05-04T12:25:58.196Z,25.51
2023-05-04T12:26:54.666Z,25.57
2023-05-04T12:27:54.656Z,25.57
2023-05-04T12:28:54.632Z,25.42
2023-05-04T12:29:54.639Z,25.39
2023-05-04T12:30:54.651Z,25.48
2023-05-04T12:31:54.681Z,25.53
2023-05-04T12:32:54.870Z,25.49
2023-05-04T12:33:54.623Z,25.60
2023-05-04T12:34:54.614Z,25.64
2023-05-04T12:35:54.615Z,25.71
2023-05-04T12:36:54.613Z,25.71
2023-05-04T12:37:54.615Z,25.72
2023-05-04T12:38:54.602Z,25.71
2023-05-04T12:39:54.612Z,25.89
2023-05-04T12:40:54.601Z,26.00
2023-05-04T12:41:54.602Z,25.74
2023-05-04T12:42:54.594Z,25.83
2023-05-04T12:43:54.628Z,26.03
2023-05-04T12:44:54.636Z,26.03
2023-05-04T12:45:54.711Z,25.96
2023-05-04T12:46:54.588Z,25.86
2023-05-04T12:47:54.614Z,25.81
2023-05-04T12:48:54.603Z,25.85
2023-05-04T12:49:54.585Z,25.91
2023-05-04T12:50:54.579Z,25.96
2023-05-04T12:51:54.578Z,26.06
2023-05-04T12:52:54.575Z,25.93
2023-05-04T12:53:54.575Z,25.90
2023-05-04T12:54:54.569Z,25.85
2023-05-04T12:55:54.570Z,25.93